createdAt,value
2018-04-04T00:01:51.582Z,-72
2018-04-04T00:04:21.173Z,-72
2018-04-04T00:06:50.276Z,-72
2018-04-04T00:09:19.299Z,-72
2018-04-04T00:11:48.328Z,-72
2018-04-04T00:14:17.434Z,-73
2018-04-04T00:16:46.538Z,-72
2018-04-04T00:19:15.575Z,-72
2018-04-04T00:21:44.643Z,-72
2018-04-04T00:24:13.683Z,-72
2018-04-04T00:26:42.715Z,-72
2018-04-04T00:29:11.785Z,-72
2018-04-04T00:31:41.648Z,-72
2018-04-04T00:34:10.679Z,-72
2018-04-04T00:36:39.751Z,-72
2018-04-04T00:39:08.792Z,-72
2018-04-04T00:41:37.871Z,-72
2018-04-04T00:44:06.908Z,-73
2018-04-04T00:46:35.964Z,-73
2018-04-04T00:49:05.763Z,-75
2018-04-04T00:51:34.842Z,-72
2018-04-04T00:54:03.880Z,-72
2018-04-04T00:56:32.956Z,-72
2018-04-04T00:59:02.757Z,-72
2018-04-04T01:01:31.828Z,-72
2018-04-04T01:04:00.879Z,-72
2018-04-04T01:06:29.964Z,-72
2018-04-04T01:08:59.017Z,-72
2018-04-04T01:11:28.145Z,-74
2018-04-04T01:13:57.486Z,-73
2018-04-04T01:16:27.363Z,-72
2018-04-04T01:18:56.455Z,-73
2018-04-04T01:21:26.242Z,-73
2018-04-04T01:23:55.272Z,-72
2018-04-04T01:26:24.318Z,-72
2018-04-04T01:28:53.367Z,-72
2018-04-04T01:31:22.568Z,-72
2018-04-04T01:33:51.621Z,-73
2018-04-04T01:36:20.639Z,-72
2018-04-04T01:38:49.698Z,-72
2018-04-04T01:41:18.753Z,-72
2018-04-04T01:43:47.809Z,-72
2018-04-04T01:46:18.339Z,-72
2018-04-04T01:48:47.404Z,-72
2018-04-04T01:51:16.438Z,-72
2018-04-04T01:53:45.503Z,-73
2018-04-04T01:56:15.338Z,-72
2018-04-04T01:58:44.441Z,-72
2018-04-04T02:01:13.548Z,-72
2018-04-04T02:03:42.750Z,-72
2018-04-04T02:06:11.793Z,-72
2018-04-04T02:08:41.640Z,-75
2018-04-04T02:11:10.689Z,-73
2018-04-04T02:13:39.750Z,-73
2018-04-04T02:16:09.113Z,-72
2018-04-04T02:18:38.193Z,-72
2018-04-04T02:21:07.256Z,-72
2018-04-04T02:23:36.290Z,-72
2018-04-04T02:26:05.394Z,-72
2018-04-04T02:28:34.433Z,-72
2018-04-04T02:31:03.497Z,-72
2018-04-04T02:33:32.557Z,-72
2018-04-04T02:36:01.619Z,-72
2018-04-04T02:38:30.656Z,-72
2018-04-04T02:41:00.522Z,-72
2018-04-04T02:43:29.551Z,-72
2018-04-04T02:45:58.577Z,-72
2018-04-04T02:48:27.656Z,-72
2018-04-04T02:50:56.695Z,-72
2018-04-04T02:53:25.736Z,-73
2018-04-04T02:55:54.799Z,-72
2018-04-04T02:58:23.839Z,-72
2018-04-04T03:00:52.911Z,-72
2018-04-04T03:03:22.698Z,-72
2018-04-04T03:05:51.759Z,-72
2018-04-04T03:08:20.795Z,-72
2018-04-04T03:10:50.667Z,-72
2018-04-04T03:13:19.681Z,-72
2018-04-04T03:15:48.702Z,-72
2018-04-04T03:18:18.529Z,-72
2018-04-04T03:20:47.576Z,-72
2018-04-04T03:23:16.656Z,-72
2018-04-04T03:25:45.678Z,-72
2018-04-04T03:28:14.707Z,-72
2018-04-04T03:30:43.765Z,-73
2018-04-04T03:33:12.791Z,-72
2018-04-04T03:35:41.853Z,-72
2018-04-04T03:38:10.884Z,-72
2018-04-04T03:40:39.964Z,-72
2018-04-04T03:43:08.999Z,-72
2018-04-04T03:45:38.039Z,-73
2018-04-04T03:48:07.863Z,-72
2018-04-04T03:50:36.895Z,-72
2018-04-04T03:53:05.957Z,-72
2018-04-04T03:55:35.051Z,-72
2018-04-04T03:58:04.083Z,-72
2018-04-04T04:00:33.150Z,-73
2018-04-04T04:03:02.179Z,-72
2018-04-04T04:05:31.239Z,-72
2018-04-04T04:08:00.268Z,-72
2018-04-04T04:10:29.339Z,-72
2018-04-04T04:12:58.369Z,-72
2018-04-04T04:15:27.476Z,-72
2018-04-04T04:17:57.286Z,-72
2018-04-04T04:20:27.119Z,-72
2018-04-04T04:22:56.155Z,-72
2018-04-04T04:25:25.273Z,-72
2018-04-04T04:27:54.315Z,-72
2018-04-04T04:30:23.346Z,-72
2018-04-04T04:32:52.403Z,-72
2018-04-04T04:35:21.427Z,-72
2018-04-04T04:37:50.488Z,-72
2018-04-04T04:40:19.527Z,-72
2018-04-04T04:42:48.583Z,-72
2018-04-04T04:45:17.619Z,-72
2018-04-04T04:47:46.686Z,-72
2018-04-04T04:50:15.737Z,-72
2018-04-04T04:52:44.799Z,-72
2018-04-04T04:55:14.608Z,-72
2018-04-04T04:57:43.680Z,-72
2018-04-04T05:00:12.775Z,-72
2018-04-04T05:02:41.804Z,-72
2018-04-04T05:05:11.599Z,-72
2018-04-04T05:07:40.674Z,-72
2018-04-04T05:10:09.699Z,-70
2018-04-04T05:12:38.780Z,-72
2018-04-04T05:15:07.819Z,-73
2018-04-04T05:17:36.908Z,-72
2018-04-04T05:20:05.938Z,-72
2018-04-04T05:22:35.016Z,-72
2018-04-04T05:25:04.040Z,-72
2018-04-04T05:27:33.102Z,-71
2018-04-04T05:30:02.132Z,-71
2018-04-04T05:32:31.203Z,-72
2018-04-04T05:35:00.394Z,-72
2018-04-04T05:37:29.548Z,-73
2018-04-04T05:39:59.343Z,-72
2018-04-04T05:42:28.439Z,-72
2018-04-04T05:44:57.462Z,-72
2018-04-04T05:47:26.478Z,-70
2018-04-04T05:49:55.550Z,-72
2018-04-04T05:52:24.595Z,-72
2018-04-04T05:54:53.630Z,-72
2018-04-04T05:57:22.708Z,-72
2018-04-04T05:59:52.504Z,-72
2018-04-04T06:02:21.539Z,-72
2018-04-04T06:04:50.606Z,-72
2018-04-04T06:07:20.465Z,-72
2018-04-04T06:09:49.486Z,-72
2018-04-04T06:12:18.527Z,-72
2018-04-04T06:14:47.595Z,-72
2018-04-04T06:17:17.387Z,-72
2018-04-04T06:19:46.435Z,-72
2018-04-04T06:22:15.554Z,-72
2018-04-04T06:24:44.610Z,-72
2018-04-04T06:27:13.695Z,-72
2018-04-04T06:29:42.790Z,-71
2018-04-04T06:32:11.838Z,-71
2018-04-04T06:34:40.903Z,-71
2018-04-04T06:37:09.941Z,-71
2018-04-04T06:39:39.095Z,-71
2018-04-04T06:42:08.110Z,-71
2018-04-04T06:44:37.238Z,-72
2018-04-04T06:47:06.320Z,-71
2018-04-04T06:49:35.390Z,-71
2018-04-04T06:52:04.455Z,-71
2018-04-04T06:54:33.515Z,-72
2018-04-04T06:57:02.595Z,-71
2018-04-04T06:59:31.647Z,-71
2018-04-04T07:02:00.710Z,-71
2018-04-04T07:04:29.762Z,-72
2018-04-04T07:06:58.821Z,-71
2018-04-04T07:09:27.866Z,-71
2018-04-04T07:11:56.921Z,-71
2018-04-04T07:14:26.030Z,-71
2018-04-04T07:16:55.075Z,-71
2018-04-04T07:19:25.028Z,-71
2018-04-04T07:21:54.087Z,-71
2018-04-04T07:24:23.126Z,-71
2018-04-04T07:26:52.277Z,-71
2018-04-04T07:29:21.345Z,-71
2018-04-04T07:31:50.472Z,-71
2018-04-04T07:34:20.304Z,-71
2018-04-04T07:36:49.673Z,-70
2018-04-04T07:39:18.778Z,-70
2018-04-04T07:41:48.172Z,-70
2018-04-04T07:44:17.980Z,-70
2018-04-04T07:46:47.016Z,-70
2018-04-04T07:49:16.257Z,-70
2018-04-04T07:51:45.355Z,-70
2018-04-04T07:54:14.464Z,-71
2018-04-04T07:56:43.507Z,-71
2018-04-04T07:59:12.578Z,-71
2018-04-04T08:01:41.714Z,-70
2018-04-04T08:04:10.814Z,-71
2018-04-04T08:06:39.916Z,-71
2018-04-04T08:09:09.145Z,-70
2018-04-04T08:11:38.399Z,-71
2018-04-04T08:14:07.534Z,-71
2018-04-04T08:16:36.738Z,-70
2018-04-04T08:19:06.571Z,-71
2018-04-04T08:21:35.622Z,-71
2018-04-04T08:24:04.703Z,-70
2018-04-04T08:26:34.136Z,-70
2018-04-04T08:29:03.801Z,-71
2018-04-04T08:31:32.978Z,-70
2018-04-04T08:34:02.145Z,-70
2018-04-04T08:36:31.210Z,-70
2018-04-04T08:39:01.361Z,-70
2018-04-04T08:41:31.355Z,-70
2018-04-04T08:44:00.695Z,-71
2018-04-04T08:46:29.724Z,-70
2018-04-04T08:48:58.797Z,-70
2018-04-04T08:51:27.823Z,-71
2018-04-04T08:53:56.860Z,-71
2018-04-04T08:56:26.067Z,-70
2018-04-04T08:58:55.166Z,-70
2018-04-04T09:01:24.200Z,-71
2018-04-04T09:03:53.293Z,-71
2018-04-04T09:06:22.387Z,-70
2018-04-04T09:08:51.412Z,-70
2018-04-04T09:11:21.208Z,-70
2018-04-04T09:13:50.287Z,-71
2018-04-04T09:16:19.334Z,-70
2018-04-04T09:18:49.161Z,-70
2018-04-04T09:21:18.241Z,-70
2018-04-04T09:23:47.339Z,-71
2018-04-04T09:26:16.419Z,-70
2018-04-04T09:28:45.482Z,-70
2018-04-04T09:31:15.789Z,-71
2018-04-04T09:33:46.177Z,-72
2018-04-04T09:36:15.681Z,-71
2018-04-04T09:38:48.957Z,-71
2018-04-04T09:41:19.652Z,-71
2018-04-04T09:43:50.372Z,-71
2018-04-04T09:46:20.477Z,-71
2018-04-04T09:48:49.822Z,-72
2018-04-04T09:51:18.941Z,-71
2018-04-04T09:53:48.350Z,-71
2018-04-04T09:56:17.811Z,-71
2018-04-04T09:58:48.604Z,-71
2018-04-04T10:01:29.178Z,-71
2018-04-04T10:03:59.067Z,-71
2018-04-04T10:06:28.273Z,-71
2018-04-04T10:08:59.333Z,-71
2018-04-04T10:11:29.196Z,-71
2018-04-04T10:13:58.381Z,-71
2018-04-04T10:16:31.715Z,-71
2018-04-04T10:19:01.153Z,-71
2018-04-04T10:21:31.333Z,-72
2018-04-04T10:24:02.839Z,-71
2018-04-04T10:26:32.665Z,-71
2018-04-04T10:29:01.756Z,-70
2018-04-04T10:31:30.837Z,-70
2018-04-04T10:34:00.011Z,-71
2018-04-04T10:36:30.985Z,-71
2018-04-04T10:39:00.251Z,-73
2018-04-04T10:41:29.275Z,-73
2018-04-04T10:43:58.319Z,-73
2018-04-04T10:46:28.287Z,-73
2018-04-04T10:48:58.272Z,-70
2018-04-04T10:51:28.154Z,-71
2018-04-04T10:53:57.231Z,-71
2018-04-04T10:56:26.474Z,-71
2018-04-04T10:58:55.633Z,-70
2018-04-04T11:01:25.507Z,-70
2018-04-04T11:03:54.583Z,-72
2018-04-04T11:06:23.643Z,-71
2018-04-04T11:08:52.710Z,-71
2018-04-04T11:11:21.768Z,-71
2018-04-04T11:13:52.403Z,-71
2018-04-04T11:16:21.811Z,-71
2018-04-04T11:18:51.595Z,-71
2018-04-04T11:21:20.656Z,-71
2018-04-04T11:23:49.742Z,-71
2018-04-04T11:26:18.802Z,-71
2018-04-04T11:28:48.594Z,-71
2018-04-04T11:31:18.463Z,-71
2018-04-04T11:33:47.491Z,-71
2018-04-04T11:36:16.552Z,-72
2018-04-04T11:38:45.588Z,-72
2018-04-04T11:41:14.664Z,-72
2018-04-04T11:43:43.709Z,-72
2018-04-04T11:46:13.499Z,-71
2018-04-04T11:48:43.733Z,-72
2018-04-04T11:51:13.761Z,-72
2018-04-04T11:53:42.823Z,-72
2018-04-04T11:56:11.979Z,-72
2018-04-04T11:58:41.092Z,-71
2018-04-04T12:01:10.977Z,-67
2018-04-04T12:03:40.044Z,-67
2018-04-04T12:06:09.481Z,-66
2018-04-04T12:08:38.563Z,-67
2018-04-04T12:11:07.596Z,-67
2018-04-04T12:13:36.657Z,-67
2018-04-04T12:16:05.679Z,-67
2018-04-04T12:18:34.754Z,-67
2018-04-04T12:21:03.792Z,-67
2018-04-04T12:23:32.868Z,-67
2018-04-04T12:26:03.842Z,-67
2018-04-04T12:28:33.765Z,-67
2018-04-04T12:31:02.948Z,-67
2018-04-04T12:33:32.308Z,-67
2018-04-04T12:36:01.551Z,-68
2018-04-04T12:38:31.059Z,-68
2018-04-04T12:41:00.048Z,-67
2018-04-04T12:43:29.203Z,-67
2018-04-04T12:45:58.577Z,-67
2018-04-04T12:48:28.072Z,-67
2018-04-04T12:50:57.256Z,-67
2018-04-04T12:53:26.394Z,-67
2018-04-04T12:55:55.448Z,-67
2018-04-04T12:58:24.548Z,-67
2018-04-04T13:00:53.562Z,-67
2018-04-04T13:03:23.364Z,-67
2018-04-04T13:05:52.545Z,-67
2018-04-04T13:08:21.571Z,-67
2018-04-04T13:10:50.638Z,-67
2018-04-04T13:13:19.877Z,-67
2018-04-04T13:15:49.390Z,-67
2018-04-04T13:18:18.432Z,-67
2018-04-04T13:20:47.685Z,-67
2018-04-04T13:23:16.756Z,-67
2018-04-04T13:25:45.908Z,-67
2018-04-04T13:28:15.115Z,-67
2018-04-04T13:30:44.998Z,-67
2018-04-04T13:33:14.278Z,-67
2018-04-04T13:35:43.347Z,-67
2018-04-04T13:38:12.367Z,-73
2018-04-04T13:40:41.447Z,-73
2018-04-04T13:43:11.243Z,-73
2018-04-04T13:45:40.336Z,-73
2018-04-04T13:48:09.415Z,-72
2018-04-04T13:50:38.476Z,-72
2018-04-04T13:53:07.526Z,-71
2018-04-04T13:55:37.367Z,-72
2018-04-04T13:58:06.396Z,-72
2018-04-04T14:00:35.476Z,-72
2018-04-04T14:03:04.568Z,-72
2018-04-04T14:05:33.635Z,-72
2018-04-04T14:08:03.421Z,-72
2018-04-04T14:10:32.483Z,-71
2018-04-04T14:13:01.596Z,-71
2018-04-04T14:15:30.653Z,-71
2018-04-04T14:17:59.733Z,-71
2018-04-04T14:20:28.804Z,-71
2018-04-04T14:22:57.867Z,-66
2018-04-04T14:25:26.901Z,-68
2018-04-04T14:27:56.724Z,-73
2018-04-04T14:30:25.908Z,-72
2018-04-04T14:32:55.046Z,-72
2018-04-04T14:35:24.155Z,-73
2018-04-04T14:37:53.179Z,-73
2018-04-04T14:40:22.351Z,-72
2018-04-04T14:42:51.382Z,-72
2018-04-04T14:45:20.409Z,-73
2018-04-04T14:47:49.460Z,-72
2018-04-04T14:50:18.480Z,-72
2018-04-04T14:52:48.330Z,-72
2018-04-04T14:55:17.432Z,-72
2018-04-04T14:57:46.528Z,-72
2018-04-04T15:00:15.584Z,-72
2018-04-04T15:02:44.704Z,-72
2018-04-04T15:05:13.756Z,-73
2018-04-04T15:07:43.556Z,-73
2018-04-04T15:10:12.638Z,-72
2018-04-04T15:12:41.821Z,-72
2018-04-04T15:15:10.879Z,-73
2018-04-04T15:17:39.904Z,-72
2018-04-04T15:20:08.976Z,-72
2018-04-04T15:22:38.007Z,-72
2018-04-04T15:25:07.099Z,-72
2018-04-04T15:27:36.156Z,-72
2018-04-04T15:30:05.220Z,-72
2018-04-04T15:32:34.286Z,-72
2018-04-04T15:35:03.316Z,-72
2018-04-04T15:37:33.173Z,-72
2018-04-04T15:40:02.222Z,-72
2018-04-04T15:42:31.378Z,-72
2018-04-04T15:45:00.413Z,-72
2018-04-04T15:47:29.479Z,-72
2018-04-04T15:49:58.536Z,-74
2018-04-04T15:52:27.560Z,-74
2018-04-04T15:54:56.632Z,-74
2018-04-04T15:57:25.649Z,-75
2018-04-04T15:59:54.749Z,-75
2018-04-04T16:02:23.797Z,-74
2018-04-04T16:04:52.826Z,-74
2018-04-04T16:07:21.892Z,-74
2018-04-04T16:09:53.986Z,-75
2018-04-04T16:12:23.055Z,-75
2018-04-04T16:14:52.081Z,-76
2018-04-04T16:17:21.161Z,-75
2018-04-04T16:19:50.200Z,-73
2018-04-04T16:22:19.281Z,-73
2018-04-04T16:24:48.304Z,-73
2018-04-04T16:27:17.370Z,-73
2018-04-04T16:29:46.433Z,-73
2018-04-04T16:32:15.531Z,-71
2018-04-04T16:34:44.572Z,-72
2018-04-04T16:37:13.646Z,-72
2018-04-04T16:39:43.517Z,-71
2018-04-04T16:42:12.607Z,-71
2018-04-04T16:44:42.262Z,-72
2018-04-04T16:47:13.472Z,-72
2018-04-04T16:49:42.742Z,-72
2018-04-04T16:52:12.029Z,-72
2018-04-04T16:54:41.539Z,-72
2018-04-04T16:57:11.056Z,-72
2018-04-04T16:59:40.364Z,-72
2018-04-04T17:02:10.178Z,-72
2018-04-04T17:04:39.374Z,-72
2018-04-04T17:07:08.491Z,-72
2018-04-04T17:09:38.346Z,-73
2018-04-04T17:12:07.545Z,-72
2018-04-04T17:14:37.299Z,-72
2018-04-04T17:17:06.731Z,-72
2018-04-04T17:19:35.873Z,-71
2018-04-04T17:22:04.976Z,-71
2018-04-04T17:24:34.013Z,-71
2018-04-04T17:27:03.230Z,-72
2018-04-04T17:29:33.360Z,-72
2018-04-04T17:32:02.574Z,-72
2018-04-04T17:34:31.721Z,-72
2018-04-04T17:37:01.574Z,-71
2018-04-04T17:39:30.596Z,-72
2018-04-04T17:41:59.938Z,-72
2018-04-04T17:44:29.760Z,-72
2018-04-04T17:46:59.726Z,-72
2018-04-04T17:49:30.300Z,-72
2018-04-04T17:51:59.574Z,-72
2018-04-04T17:54:29.603Z,-71
2018-04-04T17:56:59.057Z,-71
2018-04-04T17:59:28.118Z,-72
2018-04-04T18:01:57.938Z,-72
2018-04-04T18:04:27.004Z,-71
2018-04-04T18:06:56.026Z,-72
2018-04-04T18:09:25.120Z,-72
2018-04-04T18:11:54.153Z,-72
2018-04-04T18:14:23.188Z,-72
2018-04-04T18:16:53.027Z,-72
2018-04-04T18:19:22.055Z,-72
2018-04-04T18:21:51.086Z,-72
2018-04-04T18:24:20.906Z,-72
2018-04-04T18:26:50.699Z,-71
2018-04-04T18:29:19.762Z,-72
2018-04-04T18:31:48.840Z,-72
2018-04-04T18:34:17.888Z,-72
2018-04-04T18:36:47.787Z,-72
2018-04-04T18:39:16.855Z,-72
2018-04-04T18:41:45.886Z,-72
2018-04-04T18:44:14.951Z,-74
2018-04-04T18:46:43.992Z,-72
2018-04-04T18:49:13.781Z,-72
2018-04-04T18:51:42.890Z,-72
2018-04-04T18:54:11.924Z,-72
2018-04-04T18:56:40.969Z,-72
2018-04-04T18:59:10.192Z,-72
2018-04-04T19:01:39.240Z,-72
2018-04-04T19:04:08.329Z,-72
2018-04-04T19:06:38.065Z,-72
2018-04-04T19:09:10.379Z,-72
2018-04-04T19:11:39.620Z,-72
2018-04-04T19:14:09.682Z,-72
2018-04-04T19:16:39.803Z,-72
2018-04-04T19:19:09.188Z,-72
2018-04-04T19:21:38.668Z,-72
2018-04-04T19:24:08.037Z,-72
2018-04-04T19:26:37.409Z,-72
2018-04-04T19:29:06.700Z,-72
2018-04-04T19:31:36.034Z,-72
2018-04-04T19:34:05.343Z,-72
2018-04-04T19:36:34.643Z,-72
2018-04-04T19:39:03.859Z,-72
2018-04-04T19:41:33.161Z,-72
2018-04-04T19:44:02.448Z,-72
2018-04-04T19:46:31.598Z,-72
2018-04-04T19:49:01.021Z,-72
2018-04-04T19:51:30.455Z,-72
2018-04-04T19:53:59.983Z,-73
2018-04-04T19:56:29.107Z,-72
2018-04-04T19:58:58.282Z,-72
2018-04-04T20:01:27.532Z,-72
2018-04-04T20:03:57.517Z,-72
2018-04-04T20:06:27.584Z,-72
2018-04-04T20:08:56.886Z,-72
2018-04-04T20:11:26.116Z,-72
2018-04-04T20:13:55.388Z,-72
2018-04-04T20:16:25.709Z,-72
2018-04-04T20:18:58.120Z,-72
2018-04-04T20:21:27.539Z,-72
2018-04-04T20:23:56.681Z,-72
2018-04-04T20:26:25.783Z,-72
2018-04-04T20:28:54.888Z,-72
2018-04-04T20:31:24.175Z,-71
2018-04-04T20:33:53.833Z,-71
2018-04-04T20:36:23.086Z,-72
2018-04-04T20:38:52.919Z,-72
2018-04-04T20:41:22.054Z,-72
2018-04-04T20:43:51.079Z,-71
2018-04-04T20:46:20.941Z,-72
2018-04-04T20:48:50.071Z,-72
2018-04-04T20:51:19.159Z,-72
2018-04-04T20:53:49.004Z,-71
2018-04-04T20:56:18.152Z,-72
2018-04-04T20:58:48.053Z,-71
2018-04-04T21:01:17.439Z,-72
2018-04-04T21:03:46.565Z,-71
2018-04-04T21:06:15.647Z,-71
2018-04-04T21:08:44.737Z,-71
2018-04-04T21:11:13.826Z,-71
2018-04-04T21:13:42.953Z,-71
2018-04-04T21:16:12.040Z,-71
2018-04-04T21:18:41.110Z,-71
2018-04-04T21:21:10.223Z,-71
2018-04-04T21:23:39.406Z,-71
2018-04-04T21:26:08.475Z,-71
2018-04-04T21:28:37.540Z,-71
2018-04-04T21:31:06.586Z,-71
2018-04-04T21:33:35.704Z,-71
2018-04-04T21:36:04.821Z,-71
2018-04-04T21:38:34.114Z,-71
2018-04-04T21:41:03.325Z,-71
2018-04-04T21:43:32.487Z,-71
2018-04-04T21:46:01.724Z,-71
2018-04-04T21:48:32.041Z,-71
2018-04-04T21:51:01.661Z,-73
2018-04-04T21:53:32.443Z,-71
2018-04-04T21:56:01.731Z,-74
2018-04-04T21:58:31.066Z,-72
2018-04-04T22:03:43.786Z,-73
2018-04-04T22:06:12.878Z,-74
2018-04-04T22:08:41.960Z,-72
2018-04-04T22:11:11.278Z,-72
2018-04-04T22:13:40.393Z,-72
2018-04-04T22:16:10.798Z,-72
2018-04-04T22:18:40.134Z,-72
2018-04-04T22:21:10.227Z,-71
2018-04-04T22:23:39.434Z,-72
2018-04-04T22:26:09.292Z,-72
2018-04-04T22:28:38.827Z,-72
2018-04-04T22:31:09.363Z,-72
2018-04-04T22:33:38.994Z,-74
2018-04-04T22:36:08.112Z,-71
2018-04-04T22:38:37.290Z,-72
2018-04-04T22:41:06.868Z,-71
2018-04-04T22:43:36.199Z,-72
2018-04-04T22:46:05.751Z,-72
2018-04-04T22:48:34.995Z,-72
2018-04-04T22:51:04.676Z,-72
2018-04-04T22:53:34.131Z,-72
2018-04-04T22:56:03.339Z,-72
2018-04-04T22:58:32.549Z,-72
2018-04-04T23:01:01.845Z,-72
2018-04-04T23:03:30.954Z,-73
2018-04-04T23:06:00.069Z,-72
2018-04-04T23:08:29.921Z,-72
2018-04-04T23:10:59.012Z,-72
2018-04-04T23:13:28.124Z,-73
2018-04-04T23:15:57.220Z,-72
2018-04-04T23:18:26.554Z,-72
2018-04-04T23:20:55.637Z,-72
2018-04-04T23:23:24.772Z,-72
2018-04-04T23:25:53.912Z,-72
2018-04-04T23:28:23.003Z,-72
2018-04-04T23:30:52.075Z,-72
2018-04-04T23:33:21.166Z,-72
2018-04-04T23:35:50.218Z,-72
2018-04-04T23:38:19.365Z,-72
2018-04-04T23:40:48.442Z,-72
2018-04-04T23:43:17.605Z,-72
2018-04-04T23:45:46.787Z,-72
2018-04-04T23:48:15.903Z,-73
2018-04-04T23:50:44.990Z,-72
2018-04-04T23:53:14.156Z,-72
2018-04-04T23:55:44.534Z,-72
2018-04-04T23:58:14.440Z,-72
